Time;durP1;ratioP1;P1;durP2;ratioP2;P2;SDS_P1;SDS_P2;PMS_P1;PMS_P2;Temp;Humidity;BMP_temperature;BMP_pressure;BME280_temperature;BME280_humidity;BME280_pressure;Samples;Min_cycle;Max_cycle;Signal;HPM_P1;HPM_P2
2023/06/25 00:01:59;;;;;;;10.70;5.70;;;;;;;26.38;47.37;100343.31;109469;1262;74918;-89
2023/06/25 00:11:06;;;;;;;9.80;5.80;;;;;;;26.38;47.22;100364.10;109692;1265;70858;31
2023/06/25 00:16:40;;;;;;;9.10;5.30;;;;;;;26.38;47.32;100372.58;109669;1260;83157;31
2023/06/25 00:21:56;;;;;;;17.90;6.00;;;;;;;26.37;47.38;100387.85;109768;1260;67228;-90
2023/06/25 00:30:00;;;;;;;10.20;5.40;;;;;;;26.37;47.31;100404.02;109836;1263;74455;-89
2023/06/25 00:32:27;;;;;;;11.00;5.50;;;;;;;26.37;47.33;100410.25;109535;1260;67235;-89
2023/06/25 00:35:02;;;;;;;8.90;5.50;;;;;;;26.37;47.42;100413.39;109852;1259;66998;-89
2023/06/25 00:37:46;;;;;;;10.60;5.20;;;;;;;26.37;47.43;100416.07;109861;1260;67368;31
2023/06/25 00:45:49;;;;;;;8.50;5.30;;;;;;;26.37;47.40;100437.74;109780;1260;67762;-89
2023/06/25 00:58:54;;;;;;;;;;;;;;;26.36;47.66;100458.50;109746;1260;67381;-89
2023/06/25 01:01:31;;;;;;;62.20;7.50;;;;;;;26.33;47.49;100469.41;109619;1259;67530;31
2023/06/25 01:15:12;;;;;;;10.00;5.70;;;;;;;26.33;47.48;100493.91;109658;1259;67026;-89
2023/06/25 01:31:40;;;;;;;10.30;5.40;;;;;;;26.30;47.67;100496.45;109686;1260;66976;31
2023/06/25 01:36:51;;;;;;;9.10;5.20;;;;;;;26.29;47.62;100496.77;109610;1261;82923;-89
2023/06/25 01:39:25;;;;;;;10.80;5.40;;;;;;;26.30;47.86;100494.94;109308;1262;67562;-90
2023/06/25 01:41:56;;;;;;;8.50;5.50;;;;;;;26.31;47.82;100490.30;109386;1261;68095;-90
2023/06/25 01:52:45;;;;;;;10.00;5.40;;;;;;;26.29;47.87;100485.85;109476;1260;66913;-89
2023/06/25 01:58:40;;;;;;;9.10;5.40;;;;;;;26.28;47.90;100478.84;109479;1260;67433;-89
2023/06/25 02:01:32;;;;;;;10.50;5.70;;;;;;;26.27;47.91;100475.92;109471;1262;66950;-89
2023/06/25 02:06:49;;;;;;;9.30;5.40;;;;;;;26.25;47.92;100477.71;109487;1262;66916;-89
2023/06/25 02:09:19;;;;;;;8.80;5.40;;;;;;;26.26;47.99;100476.20;109260;1263;66937;-89
2023/06/25 02:14:26;;;;;;;10.20;5.30;;;;;;;26.27;48.02;100471.19;109511;1262;68278;-89
2023/06/25 02:16:55;;;;;;;10.30;5.50;;;;;;;26.28;48.07;100471.73;109394;1263;75312;-89
2023/06/25 02:19:27;;;;;;;11.90;6.40;;;;;;;26.28;48.10;100473.17;109301;1265;67501;-89
2023/06/25 02:24:34;;;;;;;9.20;5.40;;;;;;;26.29;48.12;100471.66;109531;1262;66762;-89
2023/06/25 02:27:03;;;;;;;8.70;5.80;;;;;;;26.29;48.04;100472.58;109088;1262;67173;-90
2023/06/25 02:29:32;;;;;;;8.50;5.60;;;;;;;26.29;48.11;100466.14;109215;1262;74261;-90
2023/06/25 02:32:02;;;;;;;9.50;5.40;;;;;;;26.30;48.13;100457.72;109241;1263;67373;-89
2023/06/25 02:34:29;;;;;;;10.50;5.60;;;;;;;26.30;48.25;100461.47;109241;1264;67633;-90
2023/06/25 02:36:55;;;;;;;10.00;5.60;;;;;;;26.31;48.13;100465.02;109241;1263;67522;-90
2023/06/25 02:39:22;;;;;;;11.10;5.40;;;;;;;26.30;48.26;100462.30;109204;1262;66980;-90
2023/06/25 02:41:48;;;;;;;8.60;5.40;;;;;;;26.30;48.09;100454.21;109183;1262;67553;-89
2023/06/25 02:44:17;;;;;;;8.40;5.70;;;;;;;26.31;48.12;100454.55;109126;1262;67563;-90
2023/06/25 02:46:48;;;;;;;9.20;5.20;;;;;;;26.31;48.17;100455.69;109242;1263;67728;-89
2023/06/25 02:49:14;;;;;;;11.70;5.50;;;;;;;26.31;48.31;100463.38;109270;1263;66812;-90
2023/06/25 02:51:40;;;;;;;8.40;5.40;;;;;;;26.31;48.39;100467.30;109062;1262;67692;-90
2023/06/25 02:54:06;;;;;;;9.70;5.60;;;;;;;26.31;48.26;100469.30;109091;1263;67476;-89
2023/06/25 02:56:37;;;;;;;8.40;4.90;;;;;;;26.31;48.23;100469.61;109196;1262;66951;-90
2023/06/25 02:59:03;;;;;;;11.70;5.40;;;;;;;26.31;48.16;100467.90;109177;1262;67382;-89
2023/06/25 03:01:30;;;;;;;7.80;5.00;;;;;;;26.31;48.28;100468.28;109281;1262;67512;-90
2023/06/25 03:03:57;;;;;;;10.50;5.60;;;;;;;26.31;48.38;100467.29;109161;1263;67522;-89
2023/06/25 03:06:23;;;;;;;9.90;5.30;;;;;;;26.31;48.37;100467.08;109143;1262;67684;-90
2023/06/25 03:08:49;;;;;;;11.00;5.60;;;;;;;26.31;48.39;100464.39;109161;1262;67580;-90
2023/06/25 03:11:15;;;;;;;9.30;5.60;;;;;;;26.31;48.32;100466.25;109212;1263;67456;-90
2023/06/25 03:13:44;;;;;;;7.90;5.40;;;;;;;26.31;48.34;100462.23;109195;1262;67603;-89
2023/06/25 03:16:13;;;;;;;7.90;5.30;;;;;;;26.30;48.39;100458.38;109180;1264;66928;-89
2023/06/25 03:21:22;;;;;;;8.50;5.50;;;;;;;26.30;48.45;100452.51;109443;1262;67704;-89
2023/06/25 03:23:51;;;;;;;9.70;5.80;;;;;;;26.31;48.30;100453.41;109294;1263;67613;-90
2023/06/25 03:28:55;;;;;;;8.30;5.40;;;;;;;26.30;48.56;100454.20;109461;1262;66987;-89
2023/06/25 03:31:25;;;;;;;9.40;5.60;;;;;;;26.30;48.59;100452.66;109441;1262;75186;-89
2023/06/25 03:39:22;;;;;;;9.70;5.80;;;;;;;26.30;48.60;100444.36;109456;1264;67525;-90
2023/06/25 03:41:52;;;;;;;7.60;4.90;;;;;;;26.30;48.60;100451.02;109430;1262;67590;-89
2023/06/25 03:44:19;;;;;;;9.40;5.90;;;;;;;26.30;48.53;100454.58;109469;1261;74188;-89
2023/06/25 03:46:48;;;;;;;10.40;5.60;;;;;;;26.30;48.55;100458.17;109216;1263;73195;-89
2023/06/25 03:49:14;;;;;;;13.90;5.50;;;;;;;26.29;48.62;100454.70;109254;1263;67710;-89
2023/06/25 03:51:52;;;;;;;9.20;6.10;;;;;;;26.30;48.59;100454.02;109430;1262;67477;31
2023/06/25 03:54:22;;;;;;;12.20;5.50;;;;;;;26.30;48.51;100451.47;109397;1263;67570;-89
2023/06/25 03:56:51;;;;;;;8.60;5.70;;;;;;;26.30;48.50;100454.16;109300;1263;74029;-89
2023/06/25 03:59:18;;;;;;;10.90;5.80;;;;;;;26.29;48.52;100451.96;109403;1262;67105;-89
2023/06/25 04:01:44;;;;;;;8.50;6.20;;;;;;;26.29;48.61;100450.83;109247;1263;67024;-89
2023/06/25 04:04:11;;;;;;;8.90;5.80;;;;;;;26.30;48.54;100452.30;109131;1267;67744;-89
2023/06/25 04:06:49;;;;;;;9.70;5.70;;;;;;;26.30;48.78;100449.77;109260;1262;67615;31
2023/06/25 04:09:17;;;;;;;8.60;5.50;;;;;;;26.30;48.79;100443.11;109051;1268;74061;-89
2023/06/25 04:11:53;;;;;;;10.10;5.60;;;;;;;26.30;48.75;100444.10;109370;1262;67175;-89
2023/06/25 04:16:56;;;;;;;9.70;5.30;;;;;;;26.30;48.67;100446.37;109403;1262;67500;-89
2023/06/25 04:19:25;;;;;;;12.10;5.70;;;;;;;26.30;48.73;100448.95;109273;1263;67638;-89
2023/06/25 04:27:15;;;;;;;9.70;5.30;;;;;;;26.30;48.80;100455.85;109356;1263;67746;-87
2023/06/25 04:29:45;;;;;;;9.00;5.80;;;;;;;26.30;48.80;100449.92;109288;1261;67358;-89
2023/06/25 04:42:50;;;;;;;7.00;5.40;;;;;;;26.29;48.87;100447.27;109492;1260;66908;-89
2023/06/25 04:45:16;;;;;;;9.70;5.90;;;;;;;26.29;48.88;100447.16;109177;1262;66840;-89
2023/06/25 04:47:46;;;;;;;10.50;5.90;;;;;;;26.29;48.85;100444.77;109351;1263;67464;-89
2023/06/25 05:15:36;;;;;;;8.30;5.80;;;;;;;26.29;49.00;100433.50;109514;1260;74958;31
2023/06/25 05:18:04;;;;;;;8.40;5.40;;;;;;;26.30;49.07;100433.31;109308;1263;67581;-89
2023/06/25 05:20:35;;;;;;;8.80;5.40;;;;;;;26.30;49.06;100427.43;109306;1262;67726;-89
2023/06/25 05:31:16;;;;;;;8.90;5.70;;;;;;;26.31;49.12;100425.66;109486;1263;67618;-90
2023/06/25 05:33:46;;;;;;;11.20;5.50;;;;;;;26.32;49.10;100425.85;109337;1264;67842;-89
2023/06/25 05:38:43;;;;;;;10.00;5.90;;;;;;;26.32;49.18;100419.80;109518;1261;66926;-89
2023/06/25 05:41:13;;;;;;;9.40;6.00;;;;;;;26.32;49.21;100420.84;109370;1261;74155;-89
2023/06/25 05:43:42;;;;;;;11.50;5.80;;;;;;;26.33;49.14;100418.34;109160;1263;67531;-88
2023/06/25 05:46:13;;;;;;;11.00;5.50;;;;;;;26.33;49.14;100420.05;109345;1261;67783;-89
2023/06/25 05:48:43;;;;;;;8.30;6.10;;;;;;;26.33;49.21;100421.48;109503;1260;67458;-89
2023/06/25 05:53:57;;;;;;;9.40;5.80;;;;;;;26.34;49.14;100421.67;109621;1260;74238;-90
2023/06/25 05:59:15;;;;;;;8.80;5.40;;;;;;;26.34;49.26;100423.89;109469;1262;67799;-89
2023/06/25 06:01:45;;;;;;;8.70;5.50;;;;;;;26.35;49.29;100424.48;109275;1261;67452;-90
2023/06/25 06:07:01;;;;;;;8.10;5.20;;;;;;;26.35;49.28;100424.98;109404;1263;73639;-90
2023/06/25 06:09:41;;;;;;;11.00;5.90;;;;;;;26.36;49.20;100425.48;109435;1260;67574;-89
2023/06/25 06:12:21;;;;;;;8.80;5.50;;;;;;;26.37;49.28;100429.65;109521;1264;67492;31
2023/06/25 06:14:48;;;;;;;9.50;5.50;;;;;;;26.37;49.17;100430.55;109405;1262;66850;-90
2023/06/25 06:20:05;;;;;;;9.10;6.10;;;;;;;26.37;49.19;100439.17;109607;1261;74407;-89
2023/06/25 06:22:37;;;;;;;7.50;5.60;;;;;;;26.37;49.07;100442.93;109594;1263;67558;-89
2023/06/25 06:25:08;;;;;;;8.00;5.20;;;;;;;26.38;49.24;100442.83;109292;1261;67329;-89
2023/06/25 06:30:20;;;;;;;8.20;5.90;;;;;;;26.38;49.21;100447.15;109563;1260;67466;-88
2023/06/25 06:32:49;;;;;;;11.00;5.80;;;;;;;26.39;49.14;100445.08;109346;1262;74193;-89
2023/06/25 06:35:20;;;;;;;8.80;5.40;;;;;;;26.39;49.27;100444.50;109498;1261;67668;-89
2023/06/25 06:37:47;;;;;;;9.80;5.60;;;;;;;26.39;49.28;100444.50;109280;1262;66980;-89
2023/06/25 06:40:17;;;;;;;9.80;5.90;;;;;;;26.39;49.16;100442.99;109439;1262;67604;-89
2023/06/25 06:42:48;;;;;;;10.30;5.80;;;;;;;26.40;49.09;100445.72;109370;1260;67446;-89
2023/06/25 06:47:50;;;;;;;10.20;5.70;;;;;;;26.40;49.19;100448.45;109501;1261;67635;-89
2023/06/25 06:52:52;;;;;;;10.50;5.60;;;;;;;26.40;49.13;100450.61;109518;1261;67612;-89
2023/06/25 06:55:22;;;;;;;8.40;5.40;;;;;;;26.41;49.19;100446.42;109390;1263;74295;-89
2023/06/25 06:57:51;;;;;;;7.90;5.60;;;;;;;26.42;49.07;100446.15;109383;1261;74279;-89
2023/06/25 07:05:39;;;;;;;8.80;6.00;;;;;;;26.42;49.18;100439.81;109583;1262;67492;-89
2023/06/25 07:10:58;;;;;;;10.30;6.20;;;;;;;26.44;49.14;100438.05;109500;1263;82779;-89
2023/06/25 07:13:29;;;;;;;9.30;5.90;;;;;;;26.44;49.11;100439.71;109343;1261;67081;-88
2023/06/25 07:18:29;;;;;;;9.30;5.80;;;;;;;26.45;49.15;100434.58;109601;1263;67690;-88
2023/06/25 07:26:20;;;;;;;9.20;5.80;;;;;;;26.45;49.07;100431.90;109495;1262;67742;-89
2023/06/25 07:28:50;;;;;;;8.30;5.50;;;;;;;26.46;49.17;100433.16;109241;1262;67243;-89
2023/06/25 07:31:21;;;;;;;9.90;5.90;;;;;;;26.46;49.08;100433.05;109346;1265;67670;-89
2023/06/25 07:39:08;;;;;;;9.40;6.00;;;;;;;26.47;48.99;100426.41;109576;1261;68218;-89
2023/06/25 07:41:37;;;;;;;9.00;5.80;;;;;;;26.48;49.04;100423.52;109242;1262;67610;-89
2023/06/25 07:44:04;;;;;;;10.10;5.70;;;;;;;26.48;48.96;100424.02;109480;1260;68187;-89
2023/06/25 07:49:39;;;;;;;8.00;5.50;;;;;;;26.48;49.02;100420.31;109549;1261;73250;-89
2023/06/25 07:52:08;;;;;;;7.20;5.10;;;;;;;26.49;48.94;100415.39;109339;1262;67074;-89
2023/06/25 07:54:37;;;;;;;9.80;6.30;;;;;;;26.50;48.90;100413.66;109327;1263;67782;-89
2023/06/25 07:57:11;;;;;;;7.70;5.80;;;;;;;26.51;49.09;100415.75;109380;1259;66865;-89
2023/06/25 07:59:37;;;;;;;6.80;5.40;;;;;;;26.52;48.88;100414.33;109392;1261;67724;-89
2023/06/25 08:07:48;;;;;;;9.20;5.40;;;;;;;26.53;48.99;100397.80;109503;1262;67088;-89
2023/06/25 08:15:34;;;;;;;7.60;5.80;;;;;;;26.53;48.86;100391.63;109547;1262;74314;-89
2023/06/25 08:18:01;;;;;;;6.80;5.70;;;;;;;26.54;48.79;100388.69;109243;1263;67452;-88
2023/06/25 08:20:28;;;;;;;11.50;5.70;;;;;;;26.54;48.81;100391.37;109297;1261;67606;-89
2023/06/25 08:22:56;;;;;;;6.50;5.70;;;;;;;26.54;48.78;100390.70;109347;1262;67597;-89
2023/06/25 08:25:26;;;;;;;8.40;5.40;;;;;;;26.54;48.76;100388.58;109378;1260;67695;-90
2023/06/25 08:27:57;;;;;;;7.30;5.90;;;;;;;26.55;48.81;100389.19;109483;1261;83341;-89
2023/06/25 08:30:26;;;;;;;11.80;5.80;;;;;;;26.54;48.73;100383.37;109267;1262;67521;-89
2023/06/25 08:32:54;;;;;;;8.70;5.80;;;;;;;26.55;48.73;100381.66;109542;1263;67444;-88
2023/06/25 08:35:21;;;;;;;8.00;4.90;;;;;;;26.54;48.81;100378.79;109292;1263;67195;-89
2023/06/25 08:37:51;;;;;;;8.20;5.50;;;;;;;26.54;48.67;100376.52;109456;1263;66791;-89
2023/06/25 08:40:20;;;;;;;7.80;5.60;;;;;;;26.54;48.61;100375.53;109269;1263;73264;-89
2023/06/25 08:42:50;;;;;;;7.10;5.80;;;;;;;26.54;48.71;100376.81;109194;1261;68277;-89
2023/06/25 08:45:20;;;;;;;7.70;5.90;;;;;;;26.54;48.57;100375.07;109532;1261;67920;-89
2023/06/25 08:47:47;;;;;;;6.80;5.70;;;;;;;26.53;48.64;100371.63;109392;1263;67601;-87
2023/06/25 08:53:04;;;;;;;9.70;6.00;;;;;;;26.53;48.77;100360.76;109494;1262;71567;-90
2023/06/25 08:55:33;;;;;;;9.90;6.20;;;;;;;26.52;48.81;100357.41;109498;1260;70606;-90
2023/06/25 08:58:01;;;;;;;7.90;5.60;;;;;;;26.52;48.78;100359.42;109501;1263;67644;-89
2023/06/25 09:00:31;;;;;;;8.40;6.00;;;;;;;26.52;48.68;100364.85;109490;1262;67870;-89
2023/06/25 09:02:57;;;;;;;7.00;5.60;;;;;;;26.52;48.61;100360.78;109325;1260;68246;-89
2023/06/25 09:14:09;;;;;;;7.90;5.50;;;;;;;26.50;48.70;100349.94;109308;1263;67456;-90
2023/06/25 09:16:50;;;;;;;7.60;5.80;;;;;;;26.49;48.71;100348.61;109350;1263;68257;-89
2023/06/25 09:21:53;;;;;;;8.00;5.60;;;;;;;26.50;48.71;100342.50;109467;1262;67731;-89
2023/06/25 09:24:22;;;;;;;6.30;5.40;;;;;;;26.51;48.61;100336.44;109275;1261;66949;-89
2023/06/25 09:26:51;;;;;;;7.70;5.70;;;;;;;26.51;48.48;100337.02;109554;1260;66933;-88
2023/06/25 09:34:51;;;;;;;;;;;;;;;26.51;48.75;100332.59;109595;1263;67738;-89
2023/06/25 09:37:20;;;;;;;7.50;5.60;;;;;;;26.48;48.67;100333.48;109518;1260;70719;-88
2023/06/25 09:39:51;;;;;;;8.60;5.50;;;;;;;26.49;48.75;100331.44;109461;1262;67884;-89
2023/06/25 09:45:00;;;;;;;8.70;6.00;;;;;;;26.47;48.66;100333.36;109510;1262;75069;-89
2023/06/25 09:47:37;;;;;;;9.20;6.10;;;;;;;26.47;48.64;100334.27;109307;1261;67672;31
2023/06/25 09:52:54;;;;;;;9.70;6.00;;;;;;;26.48;48.67;100330.29;109580;1263;67561;-89
2023/06/25 09:55:29;;;;;;;7.00;6.00;;;;;;;26.48;48.64;100328.33;109468;1260;67477;-89
2023/06/25 09:57:59;;;;;;;7.90;6.00;;;;;;;26.48;48.77;100325.13;109412;1262;74147;-89
2023/06/25 10:00:28;;;;;;;10.40;6.40;;;;;;;26.48;48.62;100324.29;109370;1260;67763;-89
2023/06/25 10:02:58;;;;;;;6.90;5.70;;;;;;;26.49;48.55;100323.95;109479;1260;67913;-89
2023/06/25 10:08:07;;;;;;;9.30;6.20;;;;;;;26.50;48.63;100319.30;109525;1262;66900;-89
2023/06/25 10:10:34;;;;;;;10.30;6.00;;;;;;;26.49;48.67;100312.76;109580;1262;74316;-89
2023/06/25 10:13:07;;;;;;;6.90;5.50;;;;;;;26.50;48.60;100314.27;109476;1263;67562;-90
2023/06/25 10:15:37;;;;;;;7.00;5.70;;;;;;;26.51;48.52;100311.89;109384;1262;67567;-90
2023/06/25 10:29:41;;;;;;;7.10;6.00;;;;;;;26.51;48.53;100310.07;109565;1263;67492;-87
2023/06/25 10:34:59;;;;;;;7.80;5.90;;;;;;;26.52;48.53;100299.98;109472;1262;67416;-90
2023/06/25 10:45:55;;;;;;;8.10;6.00;;;;;;;26.55;48.60;100284.95;109613;1260;66939;-89
2023/06/25 10:48:27;;;;;;;7.50;6.40;;;;;;;26.56;48.51;100281.22;109435;1260;67498;-90
2023/06/25 10:50:56;;;;;;;7.50;6.00;;;;;;;26.57;48.50;100277.89;109674;1260;73981;-89
2023/06/25 10:53:22;;;;;;;7.60;6.20;;;;;;;26.59;48.63;100276.30;109391;1260;67588;-88
2023/06/25 10:55:49;;;;;;;10.10;6.00;;;;;;;26.60;48.61;100270.17;109555;1260;67556;-89
2023/06/25 10:58:20;;;;;;;8.20;6.10;;;;;;;26.61;48.50;100264.17;109395;1260;67639;-89
2023/06/25 11:00:52;;;;;;;;;;;;;;;26.62;48.53;100262.29;109481;1260;67510;-89
2023/06/25 11:03:18;;;;;;;9.70;6.10;;;;;;;26.59;48.43;100258.38;109364;1260;74209;-89
2023/06/25 11:05:46;;;;;;;7.00;5.90;;;;;;;26.61;48.48;100250.55;109344;1260;67530;-89
2023/06/25 11:08:23;;;;;;;7.70;5.80;;;;;;;26.63;48.57;100253.74;109445;1260;67613;31
2023/06/25 11:10:50;;;;;;;7.50;6.00;;;;;;;26.63;48.46;100253.74;109293;1263;67586;-89
2023/06/25 11:15:58;;;;;;;10.70;6.00;;;;;;;26.64;48.48;100246.83;109596;1260;74118;-89
2023/06/25 11:18:28;;;;;;;7.60;6.00;;;;;;;26.65;48.51;100243.66;109512;1260;67580;-89
2023/06/25 11:20:58;;;;;;;6.80;6.10;;;;;;;26.67;48.39;100239.10;109471;1260;67029;-89
2023/06/25 11:23:24;;;;;;;7.20;5.90;;;;;;;26.67;48.47;100232.36;109434;1260;67259;-89
2023/06/25 11:25:50;;;;;;;8.60;5.80;;;;;;;26.68;48.39;100226.35;109590;1260;68096;-89
2023/06/25 11:28:19;;;;;;;9.10;6.20;;;;;;;26.68;48.41;100220.41;109572;1260;67471;-89
2023/06/25 11:30:45;;;;;;;8.10;6.40;;;;;;;26.69;48.46;100214.65;109430;1263;67192;-89
2023/06/25 11:33:15;;;;;;;8.30;6.00;;;;;;;26.69;48.42;100217.96;109398;1260;67813;-89
2023/06/25 11:35:50;;;;;;;;;;;;;;;26.70;48.28;100212.73;109553;1260;67715;-90
2023/06/25 11:38:25;;;;;;;;;;;;;;;26.67;48.27;100212.00;109580;1265;67657;-90
2023/06/25 11:40:55;;;;;;;;;;;;;;;26.65;48.35;100211.45;109595;1260;74123;-90
2023/06/25 11:43:22;;;;;;;;;;;;;;;26.65;48.39;100209.86;109487;1260;67599;-90
2023/06/25 11:45:48;;;;;;;;;;;;;;;26.65;48.50;100208.05;109545;1260;67419;-89
2023/06/25 11:48:14;;;;;;;;;;;;;;;26.65;48.41;100206.58;109561;1261;67381;-89
2023/06/25 11:50:39;;;;;;;;;;;;;;;26.66;48.33;100203.09;109597;1260;67755;-89
2023/06/25 11:53:06;;;;;;;;;;;;;;;26.66;48.42;100201.85;109529;1261;67083;-89
2023/06/25 11:55:32;;;;;;;;;;;;;;;26.66;48.42;100205.66;109524;1260;66842;-89
2023/06/25 11:57:57;;;;;;;;;;;;;;;26.66;48.34;100196.63;109629;1261;66923;-89
2023/06/25 12:00:23;;;;;;;;;;;;;;;26.66;48.36;100190.91;109642;1260;67574;-89
2023/06/25 12:02:50;;;;;;;;;;;;;;;26.66;48.50;100188.54;109549;1260;74251;-90
2023/06/25 12:05:16;;;;;;;;;;;;;;;26.67;48.41;100181.61;109528;1261;67520;-89
2023/06/25 12:07:42;;;;;;;;;;;;;;;26.67;48.29;100177.14;109572;1260;67630;-90
2023/06/25 12:10:08;;;;;;;;;;;;;;;26.68;48.46;100171.23;109623;1260;67526;-89
2023/06/25 12:12:37;;;;;;;;;;;;;;;26.68;48.42;100159.02;109655;1260;66903;-89
2023/06/25 12:15:03;;;;;;;;;;;;;;;26.67;48.35;100149.59;109661;1261;74674;-89
2023/06/25 12:17:29;;;;;;;;;;;;;;;26.66;48.28;100148.68;109468;1260;67787;-89
2023/06/25 12:19:56;;;;;;;;;;;;;;;26.66;48.35;100158.13;109542;1261;67671;-89
2023/06/25 12:22:22;;;;;;;;;;;;;;;26.66;48.41;100165.06;109278;1260;67708;-90
2023/06/25 12:24:48;;;;;;;;;;;;;;;26.65;48.40;100167.24;109538;1260;66810;-89
2023/06/25 12:27:14;;;;;;;;;;;;;;;26.65;48.36;100180.15;109603;1260;66986;-90
2023/06/25 12:29:43;;;;;;;;;;;;;;;26.64;48.39;100185.17;109550;1259;67361;-89
2023/06/25 12:32:12;;;;;;;;;;;;;;;26.64;48.42;100200.20;109638;1260;67555;-89
2023/06/25 12:34:37;;;;;;;;;;;;;;;26.62;48.20;100201.21;109532;1260;67473;-90
2023/06/25 12:37:04;;;;;;;;;;;;;;;26.62;48.32;100208.10;109564;1260;67767;-89
2023/06/25 12:39:32;;;;;;;;;;;;;;;26.60;48.45;100213.92;109504;1260;67159;-89
2023/06/25 12:42:01;;;;;;;;;;;;;;;26.60;48.46;100224.67;109517;1259;72573;-89
2023/06/25 12:44:30;;;;;;;;;;;;;;;26.60;48.34;100232.31;109501;1260;67021;-89
2023/06/25 12:46:56;;;;;;;;;;;;;;;26.59;48.35;100221.98;109528;1259;67419;-88
2023/06/25 12:49:25;;;;;;;;;;;;;;;26.58;48.33;100214.98;109595;1260;67418;-89
2023/06/25 12:51:51;;;;;;;;;;;;;;;26.57;48.41;100223.82;109443;1259;74219;-89
2023/06/25 12:54:19;;;;;;;;;;;;;;;26.56;48.44;100233.42;109641;1259;67037;-89
2023/06/25 12:56:45;;;;;;;;;;;;;;;26.56;48.53;100248.41;109609;1259;67712;-87
2023/06/25 12:59:11;;;;;;;;;;;;;;;26.55;48.36;100272.42;109556;1260;67664;-90
2023/06/25 13:04:23;;;;;;;;;;;;;;;26.53;48.27;100315.44;109575;1260;74876;-89
2023/06/25 13:06:50;;;;;;;;;;;;;;;26.53;48.33;100327.88;109467;1260;67463;-89
2023/06/25 13:09:16;;;;;;;;;;;;;;;26.52;48.41;100329.61;109523;1260;67296;-90
2023/06/25 13:11:45;;;;;;;;;;;;;;;26.51;48.44;100331.08;109445;1260;67645;-89
2023/06/25 13:14:14;;;;;;;;;;;;;;;26.50;48.47;100327.96;109664;1259;67479;-89
2023/06/25 13:16:52;;;;;;;;;;;;;;;26.49;48.35;100322.36;109636;1260;74210;31
2023/06/25 13:19:18;;;;;;;;;;;;;;;26.49;48.37;100313.09;109535;1260;67651;-89
2023/06/25 13:21:46;;;;;;;;;;;;;;;26.48;48.43;100307.75;109524;1260;68045;-89
2023/06/25 13:24:15;;;;;;;;;;;;;;;26.47;48.48;100312.47;109527;1260;67762;-89
2023/06/25 13:26:45;;;;;;;;;;;;;;;26.46;48.43;100320.86;109534;1260;66868;-89
2023/06/25 13:29:15;;;;;;;;;;;;;;;26.45;48.45;100319.38;109209;1260;554880;-93
2023/06/25 13:31:46;;;;;;;;;;;;;;;26.44;48.39;100323.00;109507;1261;66952;31
2023/06/25 13:34:12;;;;;;;;;;;;;;;26.43;48.46;100314.67;109537;1263;67562;-89
2023/06/25 13:36:38;;;;;;;;;;;;;;;26.42;48.51;100315.98;109548;1260;67242;-89
2023/06/25 13:39:04;;;;;;;;;;;;;;;26.41;48.46;100312.23;109677;1260;66879;-89
2023/06/25 13:41:30;;;;;;;;;;;;;;;26.41;48.45;100311.52;109599;1259;66990;-89
2023/06/25 13:43:57;;;;;;;;;;;;;;;26.40;48.57;100308.15;109625;1260;67147;-88
2023/06/25 13:49:00;;;;;;;;;;;;;;;26.38;48.42;100308.23;108962;1259;805080;-89
2023/06/25 13:51:29;;;;;;;;;;;;;;;26.38;48.60;100307.36;109524;1260;66922;-89
2023/06/25 13:53:58;;;;;;;;;;;;;;;26.38;48.65;100306.60;109624;1260;74353;-89
2023/06/25 13:56:26;;;;;;;;;;;;;;;26.36;48.61;100306.21;109625;1259;67660;-89
2023/06/25 13:58:56;;;;;;;;;;;;;;;26.36;48.61;100301.48;109627;1259;67587;-89
2023/06/25 14:04:14;;;;;;;;;;;;;;;26.35;48.63;100285.07;109625;1261;67573;-89
2023/06/25 14:06:40;;;;;;;;;;;;;;;26.34;48.62;100279.05;109538;1260;67684;-89
2023/06/25 14:09:09;;;;;;;;;;;;;;;26.34;48.56;100280.45;109606;1260;67810;-89
2023/06/25 14:11:38;;;;;;;;;;;;;;;26.34;48.65;100277.57;109509;1260;66950;-89
2023/06/25 14:14:05;;;;;;;;;;;;;;;26.33;48.68;100272.69;109502;1260;67558;-89
2023/06/25 14:16:37;;;;;;;;;;;;;;;26.33;48.68;100267.84;109669;1260;67627;31
2023/06/25 14:19:03;;;;;;;;;;;;;;;26.33;48.76;100259.59;109485;1260;75112;-90
2023/06/25 14:21:32;;;;;;;;;;;;;;;26.32;48.65;100254.00;109436;1260;67534;-89
2023/06/25 14:32:03;;;;;;;;;;;;;;;26.31;48.82;100215.44;109692;1260;73943;-89
2023/06/25 14:34:55;;;;;;;;;;;;;;;26.30;48.80;100202.77;109692;1261;67607;-89
2023/06/25 14:45:49;;;;;;;;;;;;;;;26.29;48.88;100228.73;109680;1260;84082;-90
2023/06/25 14:48:15;;;;;;;;;;;;;;;26.29;48.76;100223.70;109585;1260;67017;-90
2023/06/25 14:50:47;;;;;;;;;;;;;;;26.28;48.94;100225.40;109649;1260;67404;-90
2023/06/25 14:53:17;;;;;;;;;;;;;;;26.28;48.86;100223.40;109705;1260;67063;-90
2023/06/25 14:55:45;;;;;;;;;;;;;;;26.27;49.01;100220.02;109668;1260;75291;-90
2023/06/25 15:00:42;;;;;;;;;;;;;;;26.26;48.95;100222.39;109692;1260;67206;-89
2023/06/25 15:08:23;;;;;;;;;;;;;;;26.26;48.90;100227.16;109670;1260;66968;-89
2023/06/25 15:21:51;;;;;;;;;;;;;;;26.25;49.06;100221.77;109390;1260;556112;-89
2023/06/25 15:24:19;;;;;;;;;;;;;;;26.24;49.01;100218.07;109458;1260;67122;-90
2023/06/25 15:37:32;;;;;;;;;;;;;;;26.23;49.25;100256.98;109593;1260;74338;-89
2023/06/25 15:39:58;;;;;;;;;;;;;;;26.23;49.19;100263.34;109707;1260;67666;-89
2023/06/25 15:45:19;;;;;;;;;;;;;;;26.23;49.18;100263.86;109656;1260;66933;-89
2023/06/25 15:50:35;;;;;;;;;;;;;;;26.22;49.20;100263.57;109563;1260;72579;-89
2023/06/25 15:53:01;;;;;;;;;;;;;;;26.22;49.18;100264.55;109505;1260;67769;-89
2023/06/25 15:55:29;;;;;;;;;;;;;;;26.22;49.21;100268.06;109365;1260;67556;-89
2023/06/25 16:06:45;;;;;;;;;;;;;;;26.22;49.27;100275.13;109436;1262;67698;-89
2023/06/25 16:09:11;;;;;;;;;;;;;;;26.22;49.09;100274.98;109263;1264;67097;-89
2023/06/25 16:11:36;;;;;;;;;;;;;;;26.21;49.21;100270.09;109185;1263;67546;-90
2023/06/25 16:14:02;;;;;;;;;;;;;;;26.21;49.28;100271.08;109179;1262;66867;-89
2023/06/25 16:16:32;;;;;;;;;;;;;;;26.21;49.34;100276.59;109194;1263;67551;-90
2023/06/25 16:18:58;;;;;;;;;;;;;;;26.21;49.35;100282.15;109356;1263;67647;-89
2023/06/25 16:21:24;;;;;;;;;;;;;;;26.21;49.43;100284.69;109183;1262;67495;-89
2023/06/25 16:23:50;;;;;;;;;;;;;;;26.20;49.38;100287.02;109207;1264;66982;-90
2023/06/25 16:26:16;;;;;;;;;;;;;;;26.21;49.29;100279.12;109267;1263;67491;-90
2023/06/25 16:28:42;;;;;;;;;;;;;;;26.20;49.51;100275.42;109258;1264;67509;-90
2023/06/25 16:31:09;;;;;;;;;;;;;;;26.20;49.38;100270.00;109139;1264;67556;-89
2023/06/25 16:33:35;;;;;;;;;;;;;;;26.20;49.27;100263.42;109305;1264;67627;-89
2023/06/25 16:36:02;;;;;;;;;;;;;;;26.20;49.29;100255.63;109210;1263;67115;-90
2023/06/25 16:38:36;;;;;;;;;;;;;;;26.20;49.37;100253.05;109249;1263;67416;-89
2023/06/25 16:41:03;;;;;;;;;;;;;;;26.20;49.32;100249.81;109177;1264;75185;-89
2023/06/25 16:43:30;;;;;;;;;;;;;;;26.19;49.40;100246.21;109256;1260;66877;-89
2023/06/25 16:46:03;;;;;;;;;;;;;;;26.19;49.36;100247.61;109497;1260;67558;31
2023/06/25 16:48:29;;;;;;;;;;;;;;;26.19;49.28;100245.48;109553;1262;67365;-89
2023/06/25 16:50:58;;;;;;;;;;;;;;;26.19;49.31;100242.61;109531;1260;67463;-89
2023/06/25 16:53:27;;;;;;;;;;;;;;;26.19;49.31;100239.83;109510;1260;74291;-89
2023/06/25 16:55:56;;;;;;;;;;;;;;;26.19;49.35;100239.21;109413;1260;67161;-89
2023/06/25 16:58:25;;;;;;;;;;;;;;;26.18;49.34;100233.50;109538;1260;67411;-89
2023/06/25 17:00:58;;;;;;;;;;;;;;;26.19;49.49;100229.83;109623;1260;67562;31
2023/06/25 17:03:24;;;;;;;;;;;;;;;26.17;49.48;100230.02;109373;1261;74646;-90
2023/06/25 17:08:37;;;;;;;;;;;;;;;26.18;49.48;100240.88;109540;1260;67997;-89
2023/06/25 17:11:08;;;;;;;;;;;;;;;26.18;49.34;100244.64;109467;1260;66924;-90
2023/06/25 17:13:36;;;;;;;;;;;;;;;26.18;49.33;100252.48;109442;1260;68014;-89
2023/06/25 17:16:05;;;;;;;;;;;;;;;26.18;49.43;100253.88;109524;1259;66891;-89